Time;durP1;ratioP1;P1;durP2;ratioP2;P2;SDS_P1;SDS_P2;PMS_P1;PMS_P2;Temp;Humidity;BMP_temperature;BMP_pressure;BME280_temperature;BME280_humidity;BME280_pressure;Samples;Min_cycle;Max_cycle;Signal;HPM_P1;HPM_P2
2022/02/24 00:01:45;;;;;;;2.90;2.20;;;1.00;99.90;;;;;;7380098;19;20358;-65
2022/02/24 00:04:10;;;;;;;3.00;2.67;;;1.00;99.90;;;;;;7379662;19;20646;-64
2022/02/24 00:06:36;;;;;;;4.00;2.47;;;1.00;99.90;;;;;;7381115;19;20324;-66
2022/02/24 00:09:02;;;;;;;3.20;2.42;;;1.00;99.90;;;;;;7383014;19;20332;-65
2022/02/24 00:11:28;;;;;;;4.47;2.40;;;1.10;99.90;;;;;;7378679;19;20341;-64
2022/02/24 00:13:53;;;;;;;3.70;2.30;;;1.10;99.90;;;;;;7373864;19;20300;-64
2022/02/24 00:16:19;;;;;;;3.92;2.50;;;1.10;99.90;;;;;;7380680;19;20879;-64
2022/02/24 00:18:44;;;;;;;2.20;2.00;;;1.10;99.90;;;;;;7381297;19;20297;-66
2022/02/24 00:21:10;;;;;;;2.75;1.98;;;1.10;99.90;;;;;;7380803;19;20357;-64
2022/02/24 00:23:36;;;;;;;3.30;2.30;;;1.10;99.90;;;;;;7379226;19;20937;-65
2022/02/24 00:26:01;;;;;;;3.05;2.08;;;1.10;99.90;;;;;;7380938;19;20317;-65
2022/02/24 00:28:27;;;;;;;2.77;2.00;;;1.00;99.90;;;;;;7382871;19;20320;-65
2022/02/24 00:30:52;;;;;;;5.25;2.60;;;1.00;99.90;;;;;;7379344;19;20321;-65
2022/02/24 00:33:18;;;;;;;4.07;2.33;;;1.00;99.90;;;;;;7377956;19;20304;-65
2022/02/24 00:35:44;;;;;;;2.90;2.33;;;1.00;99.90;;;;;;7380345;19;20871;-65
2022/02/24 00:38:09;;;;;;;2.43;2.10;;;1.00;99.90;;;;;;7380405;19;20316;-66
2022/02/24 00:40:35;;;;;;;2.47;2.28;;;0.90;99.90;;;;;;7379622;19;20312;-67
2022/02/24 00:43:00;;;;;;;2.70;2.20;;;0.90;99.90;;;;;;7378393;19;20672;-65
2022/02/24 00:45:26;;;;;;;4.05;2.47;;;0.90;99.90;;;;;;7377551;19;20398;-64
2022/02/24 00:47:52;;;;;;;2.20;2.00;;;1.00;99.90;;;;;;7380408;19;20312;-65
2022/02/24 00:50:17;;;;;;;6.70;2.00;;;1.00;99.90;;;;;;7379657;19;20361;-64
2022/02/24 00:52:43;;;;;;;3.70;2.50;;;0.90;99.90;;;;;;7376778;19;20341;-65
2022/02/24 00:55:09;;;;;;;2.75;1.90;;;0.90;99.90;;;;;;7379906;19;20328;-65
2022/02/24 00:57:35;;;;;;;2.17;1.98;;;0.90;99.90;;;;;;7380423;19;20343;-65
2022/02/24 01:00:00;;;;;;;2.87;2.10;;;0.80;99.90;;;;;;7381170;19;21888;-65
2022/02/24 01:02:26;;;;;;;2.28;1.98;;;0.90;99.90;;;;;;7375713;19;20803;-64
2022/02/24 01:04:52;;;;;;;3.53;2.10;;;0.80;99.90;;;;;;7381934;19;20327;-64
2022/02/24 01:07:18;;;;;;;2.67;2.17;;;0.80;99.90;;;;;;7376931;19;20308;-65
2022/02/24 01:09:44;;;;;;;2.85;2.10;;;0.90;99.90;;;;;;7378840;19;20308;-64
2022/02/24 01:12:09;;;;;;;3.92;2.25;;;0.90;99.90;;;;;;7378341;19;20308;-64
2022/02/24 01:14:36;;;;;;;4.25;2.60;;;1.00;99.90;;;;;;7363190;19;21162;-64
2022/02/24 01:17:02;;;;;;;3.05;2.58;;;1.00;99.90;;;;;;7378388;19;20312;-65
2022/02/24 01:19:28;;;;;;;3.45;2.67;;;1.10;99.90;;;;;;7379089;19;20309;-65
2022/02/24 01:21:53;;;;;;;2.60;2.20;;;1.20;99.90;;;;;;7378194;19;20317;-65
2022/02/24 01:24:19;;;;;;;3.10;2.03;;;1.20;99.90;;;;;;7377502;19;20308;-65
2022/02/24 01:26:45;;;;;;;2.67;2.33;;;1.20;99.90;;;;;;7378726;19;20312;-64
2022/02/24 01:29:10;;;;;;;3.35;2.22;;;1.20;99.90;;;;;;7378087;19;20328;-65
2022/02/24 01:31:36;;;;;;;3.07;2.30;;;1.20;99.90;;;;;;7379306;19;20312;-65
2022/02/24 01:34:01;;;;;;;2.95;2.63;;;1.10;99.90;;;;;;7375729;19;20312;-65
2022/02/24 01:36:28;;;;;;;2.43;2.20;;;1.10;99.90;;;;;;7374591;19;20380;-65
2022/02/24 01:38:54;;;;;;;2.38;2.15;;;1.10;99.90;;;;;;7378014;19;20320;-65
2022/02/24 01:41:20;;;;;;;4.45;2.38;;;1.10;99.90;;;;;;7378389;19;20335;-65
2022/02/24 01:43:46;;;;;;;2.80;2.00;;;1.10;99.90;;;;;;7377552;19;20364;-64
2022/02/24 01:46:12;;;;;;;2.97;2.30;;;1.10;99.90;;;;;;7380380;19;20363;-64
2022/02/24 01:48:38;;;;;;;4.20;2.28;;;1.10;99.90;;;;;;7379242;19;20315;-65
2022/02/24 01:51:04;;;;;;;2.88;2.50;;;1.00;99.90;;;;;;7380235;19;20308;-65
2022/02/24 01:53:29;;;;;;;4.63;2.30;;;1.10;99.90;;;;;;7375930;19;20382;-65
2022/02/24 01:55:55;;;;;;;3.30;2.25;;;1.00;99.90;;;;;;7377244;19;20376;-64
2022/02/24 01:58:22;;;;;;;2.63;2.27;;;1.00;99.90;;;;;;7376434;19;20892;-65
2022/02/24 02:00:48;;;;;;;5.57;2.47;;;1.00;99.90;;;;;;7377828;19;20313;-65
2022/02/24 02:03:13;;;;;;;3.53;2.40;;;1.00;99.90;;;;;;7371598;19;20329;-65
2022/02/24 02:05:39;;;;;;;2.78;2.47;;;1.00;99.90;;;;;;7377184;19;20384;-65
2022/02/24 02:08:05;;;;;;;3.30;2.47;;;1.00;99.90;;;;;;7377608;19;20320;-65
2022/02/24 02:10:31;;;;;;;3.60;2.47;;;0.90;99.90;;;;;;7378451;19;20305;-65
2022/02/24 02:12:56;;;;;;;1.85;1.70;;;1.00;99.90;;;;;;7375840;19;20316;-65
2022/02/24 02:15:22;;;;;;;2.75;2.00;;;0.90;99.90;;;;;;7375818;19;20309;-65
2022/02/24 02:17:48;;;;;;;2.73;2.10;;;0.90;99.90;;;;;;7377618;19;20309;-65
2022/02/24 02:20:17;;;;;;;2.05;1.85;;;0.90;99.90;;;;;;7377207;19;20942;-64
2022/02/24 02:22:43;;;;;;;3.20;2.05;;;0.80;99.90;;;;;;7373989;19;20859;-65
2022/02/24 02:25:09;;;;;;;3.28;1.98;;;0.70;99.90;;;;;;7378459;19;20312;-64
2022/02/24 02:27:35;;;;;;;2.53;2.05;;;0.70;99.90;;;;;;7377358;19;20647;-65
2022/02/24 02:30:00;;;;;;;3.20;1.90;;;0.70;99.90;;;;;;7377051;19;20340;-65
2022/02/24 02:32:26;;;;;;;3.63;1.63;;;0.60;99.90;;;;;;7374840;19;20313;-65
2022/02/24 02:34:51;;;;;;;3.42;2.00;;;0.60;99.90;;;;;;7373800;19;20335;-65
2022/02/24 02:37:17;;;;;;;1.97;1.60;;;0.60;99.90;;;;;;7377773;19;20317;-65
2022/02/24 02:39:43;;;;;;;1.70;1.60;;;0.60;99.90;;;;;;7375678;19;21245;-65
2022/02/24 02:42:08;;;;;;;2.53;1.70;;;0.50;99.90;;;;;;7377592;19;20313;-64
2022/02/24 02:44:34;;;;;;;2.05;1.80;;;0.60;99.90;;;;;;7355544;19;20315;-65
2022/02/24 02:46:59;;;;;;;2.37;1.57;;;0.50;99.90;;;;;;7376803;19;20308;-64
2022/02/24 02:49:25;;;;;;;2.30;2.00;;;0.40;99.90;;;;;;7374328;19;20341;-65
2022/02/24 02:51:52;;;;;;;2.53;1.80;;;0.40;99.90;;;;;;7375003;19;21254;-65
2022/02/24 02:54:18;;;;;;;2.10;1.90;;;0.40;99.90;;;;;;7375102;19;20308;-64
2022/02/24 02:56:44;;;;;;;2.20;2.00;;;0.20;99.90;;;;;;7375125;19;20321;-65
2022/02/24 02:59:09;;;;;;;2.30;2.10;;;0.20;99.90;;;;;;7376029;19;20329;-65
2022/02/24 03:01:35;;;;;;;4.50;2.00;;;0.20;99.90;;;;;;7374053;19;20345;-65
2022/02/24 03:04:01;;;;;;;1.90;1.80;;;0.20;99.90;;;;;;7375494;19;20683;-65
2022/02/24 03:06:27;;;;;;;3.20;2.10;;;0.20;99.90;;;;;;7376444;19;20353;-65
2022/02/24 03:08:52;;;;;;;2.35;2.15;;;0.20;99.90;;;;;;7375157;19;20333;-65
2022/02/24 03:11:18;;;;;;;3.35;2.30;;;0.30;99.90;;;;;;7375098;19;20325;-65
2022/02/24 03:13:44;;;;;;;3.47;2.30;;;0.30;99.90;;;;;;7376373;19;20324;-65
2022/02/24 03:16:09;;;;;;;2.58;2.17;;;0.40;99.90;;;;;;7374272;19;20679;-64
2022/02/24 03:18:35;;;;;;;2.60;2.05;;;0.50;99.90;;;;;;7374823;19;20363;-65
2022/02/24 03:21:00;;;;;;;4.20;2.60;;;0.60;99.90;;;;;;7377664;19;20317;-65
2022/02/24 03:23:26;;;;;;;4.75;2.20;;;0.80;99.90;;;;;;7374382;19;20392;-65
2022/02/24 03:25:52;;;;;;;3.27;2.50;;;0.80;99.90;;;;;;7374257;19;20325;-64
2022/02/24 03:28:17;;;;;;;3.55;2.47;;;0.80;99.90;;;;;;7374907;19;20316;-65
2022/02/24 03:30:43;;;;;;;3.63;2.30;;;0.90;99.90;;;;;;7379006;19;20309;-65
2022/02/24 03:33:09;;;;;;;4.13;2.37;;;1.00;99.90;;;;;;7380985;19;20344;-65
2022/02/24 03:35:34;;;;;;;3.28;2.40;;;1.00;99.90;;;;;;7382839;19;20325;-65
2022/02/24 03:38:00;;;;;;;3.50;2.27;;;0.90;99.90;;;;;;7383119;19;20312;-65
2022/02/24 03:40:26;;;;;;;3.90;2.42;;;1.00;99.90;;;;;;7382140;19;20311;-65
2022/02/24 03:42:51;;;;;;;5.18;2.53;;;1.00;99.90;;;;;;7379627;19;20646;-65
2022/02/24 03:45:17;;;;;;;4.03;2.07;;;1.00;99.90;;;;;;7381801;19;20321;-64
2022/02/24 03:47:43;;;;;;;2.25;2.05;;;1.00;99.90;;;;;;7379413;19;20329;-64
2022/02/24 03:50:11;;;;;;;2.20;2.00;;;1.00;99.90;;;;;;7381874;19;20339;-65
2022/02/24 03:52:36;;;;;;;2.38;1.92;;;1.00;99.90;;;;;;7380519;19;20379;-65
2022/02/24 03:55:03;;;;;;;4.18;2.40;;;1.00;99.90;;;;;;7382085;19;20424;-65
2022/02/24 03:57:28;;;;;;;2.95;2.47;;;1.00;99.90;;;;;;7380974;19;20328;-65
2022/02/24 03:59:54;;;;;;;2.60;2.10;;;1.00;99.90;;;;;;7383014;19;20313;-65
2022/02/24 04:02:19;;;;;;;2.77;2.23;;;0.90;99.90;;;;;;7378904;19;20309;-68
2022/02/24 04:04:45;;;;;;;4.10;2.55;;;0.90;99.90;;;;;;7376724;19;20317;-65
2022/02/24 04:07:11;;;;;;;3.80;2.60;;;0.90;99.90;;;;;;7380241;19;20316;-65
2022/02/24 04:09:37;;;;;;;2.67;2.03;;;0.90;99.90;;;;;;7383354;19;20857;-65
2022/02/24 04:12:04;;;;;;;3.25;2.10;;;0.90;99.90;;;;;;7379091;19;20317;-64
2022/02/24 04:14:30;;;;;;;3.58;2.40;;;0.90;99.90;;;;;;7376177;19;20671;-64
2022/02/24 04:16:56;;;;;;;3.80;2.22;;;0.90;99.90;;;;;;7380433;19;20406;-65
2022/02/24 04:19:22;;;;;;;3.70;2.60;;;0.80;99.90;;;;;;7380999;19;20320;-65
2022/02/24 04:21:48;;;;;;;4.72;2.50;;;0.80;99.90;;;;;;7379483;19;20338;-66
2022/02/24 04:24:14;;;;;;;3.75;2.58;;;0.80;99.90;;;;;;7378214;19;20328;-65
2022/02/24 04:26:39;;;;;;;3.40;2.47;;;0.80;99.90;;;;;;7365805;19;20345;-65
2022/02/24 04:29:05;;;;;;;2.70;2.50;;;0.90;99.90;;;;;;7382304;19;20669;-65
2022/02/24 04:31:30;;;;;;;2.50;2.30;;;0.80;99.90;;;;;;7377160;19;21162;-65
2022/02/24 04:33:56;;;;;;;3.00;2.70;;;0.80;99.90;;;;;;7377842;19;20305;-65
2022/02/24 04:36:23;;;;;;;4.47;2.30;;;0.80;99.90;;;;;;7380594;19;20349;-65
2022/02/24 04:38:49;;;;;;;3.03;2.25;;;0.80;99.90;;;;;;7380051;19;20319;-65
2022/02/24 04:41:14;;;;;;;3.40;2.30;;;0.80;99.90;;;;;;7377765;19;20717;-64
2022/02/24 04:43:40;;;;;;;3.13;2.40;;;0.80;99.90;;;;;;7376602;19;20324;-65
2022/02/24 04:46:06;;;;;;;4.30;2.28;;;0.80;99.90;;;;;;7368917;19;21552;-64
2022/02/24 04:48:31;;;;;;;5.33;2.60;;;0.80;99.90;;;;;;7375782;19;20320;-65
2022/02/24 04:50:57;;;;;;;5.38;2.55;;;0.80;99.90;;;;;;7377087;19;21006;-65
2022/02/24 04:53:23;;;;;;;8.45;2.60;;;0.80;99.90;;;;;;7374945;19;20325;-65
2022/02/24 04:55:48;;;;;;;4.30;2.40;;;0.80;99.90;;;;;;7375991;19;20316;-65
2022/02/24 04:58:14;;;;;;;4.32;2.80;;;0.90;99.90;;;;;;7379191;19;20756;-65
2022/02/24 05:00:40;;;;;;;5.27;2.57;;;0.80;99.90;;;;;;7377348;19;20341;-66
2022/02/24 05:03:05;;;;;;;3.60;2.88;;;0.80;99.90;;;;;;7376118;19;20635;-65
2022/02/24 05:05:31;;;;;;;2.50;2.30;;;0.80;99.90;;;;;;7378129;19;20955;-65
2022/02/24 05:07:57;;;;;;;2.07;1.90;;;0.80;99.90;;;;;;7378683;19;20309;-65
2022/02/24 05:10:23;;;;;;;3.47;2.40;;;0.80;99.90;;;;;;7379994;19;20332;-65
2022/02/24 05:12:50;;;;;;;3.75;2.58;;;0.70;99.90;;;;;;7376794;19;20305;-65
2022/02/24 05:15:15;;;;;;;2.70;2.10;;;0.70;99.90;;;;;;7378847;19;20372;-65
2022/02/24 05:17:41;;;;;;;5.90;2.60;;;0.70;99.90;;;;;;7378506;19;20955;-65
2022/02/24 05:20:11;;;;;;;3.08;2.47;;;0.70;99.90;;;;;;7380076;19;20327;-67
2022/02/24 05:22:41;;;;;;;6.45;2.70;;;0.70;99.90;;;;;;7374512;19;20332;-65
2022/02/24 05:25:11;;;;;;;3.75;2.30;;;0.70;99.90;;;;;;7379117;19;21043;-65
2022/02/24 05:27:37;;;;;;;3.58;2.38;;;0.70;99.90;;;;;;7377716;19;20325;-65
2022/02/24 05:30:04;;;;;;;6.80;2.45;;;0.80;99.90;;;;;;7379309;19;20969;-68
2022/02/24 05:32:30;;;;;;;2.72;2.10;;;0.80;99.90;;;;;;7377380;19;20891;-65
2022/02/24 05:34:55;;;;;;;3.93;2.50;;;0.70;99.90;;;;;;7378228;19;20316;-65
2022/02/24 05:37:23;;;;;;;4.05;2.42;;;0.80;99.90;;;;;;7380764;19;20347;-65
2022/02/24 05:39:49;;;;;;;2.77;2.13;;;0.70;99.90;;;;;;7378958;19;20305;-65
2022/02/24 05:42:15;;;;;;;2.63;2.38;;;0.70;99.90;;;;;;7375660;19;20404;-65
2022/02/24 05:44:40;;;;;;;2.90;2.40;;;0.70;99.90;;;;;;7373769;19;20400;-65
2022/02/24 05:47:06;;;;;;;3.13;2.05;;;0.70;99.90;;;;;;7377163;19;20355;-65
2022/02/24 05:49:40;;;;;;;2.60;2.25;;;0.60;99.90;;;;;;7376858;19;21138;-65
2022/02/24 05:52:15;;;;;;;2.77;2.20;;;0.60;99.90;;;;;;7178988;19;2004079;-65
2022/02/24 05:54:41;;;;;;;2.83;2.40;;;0.60;99.90;;;;;;7375996;19;20316;-64
2022/02/24 05:57:07;;;;;;;3.95;2.42;;;0.60;99.90;;;;;;7374671;19;20309;-65
2022/02/24 05:59:33;;;;;;;5.27;2.70;;;0.50;99.90;;;;;;7379395;19;20316;-65
2022/02/24 06:01:58;;;;;;;4.95;2.70;;;0.50;99.90;;;;;;7376217;19;20837;-65
2022/02/24 06:04:25;;;;;;;2.65;2.28;;;0.40;99.90;;;;;;7376102;19;20312;-65
2022/02/24 06:06:51;;;;;;;4.97;2.42;;;0.40;99.90;;;;;;7376410;19;20341;-66
2022/02/24 06:09:16;;;;;;;7.93;2.42;;;0.50;99.90;;;;;;7378921;19;20332;-65
2022/02/24 06:11:42;;;;;;;3.83;3.00;;;0.40;99.90;;;;;;7363882;19;20327;-64
2022/02/24 06:14:07;;;;;;;2.63;2.42;;;0.40;99.90;;;;;;7376270;19;20395;-65
2022/02/24 06:16:33;;;;;;;4.70;2.30;;;0.40;99.90;;;;;;7376622;19;20317;-65
2022/02/24 06:18:59;;;;;;;2.87;2.10;;;0.40;99.90;;;;;;7375655;19;20317;-65
2022/02/24 06:21:24;;;;;;;2.47;2.28;;;0.40;99.90;;;;;;7377186;19;20320;-65
2022/02/24 06:23:50;;;;;;;3.83;2.57;;;0.40;99.90;;;;;;7371988;19;20396;-65
2022/02/24 06:26:16;;;;;;;5.53;2.90;;;0.40;99.90;;;;;;7372082;19;20412;-66
2022/02/24 06:28:41;;;;;;;3.47;2.70;;;0.50;99.90;;;;;;7375932;19;20398;-65
2022/02/24 06:31:07;;;;;;;4.30;2.60;;;0.50;99.90;;;;;;7375537;19;20395;-66
2022/02/24 06:33:33;;;;;;;6.15;3.15;;;0.50;99.90;;;;;;7375160;19;20321;-65
2022/02/24 06:35:59;;;;;;;4.22;2.95;;;0.50;99.90;;;;;;7378088;19;20363;-64
2022/02/24 06:38:25;;;;;;;4.63;2.75;;;0.50;99.90;;;;;;7377091;19;20329;-65
2022/02/24 06:40:52;;;;;;;3.40;2.75;;;0.60;99.90;;;;;;7377941;19;20313;-65
2022/02/24 06:43:19;;;;;;;2.95;2.40;;;0.70;99.90;;;;;;7374476;19;20359;-64
2022/02/24 06:45:45;;;;;;;3.28;2.75;;;0.70;99.90;;;;;;7375715;19;20349;-64
2022/02/24 06:48:10;;;;;;;4.43;2.67;;;0.80;99.90;;;;;;7375997;19;20309;-64
2022/02/24 06:50:36;;;;;;;3.17;2.17;;;0.80;99.90;;;;;;7376035;19;20328;-65
2022/02/24 06:53:02;;;;;;;3.10;2.37;;;0.90;99.90;;;;;;7375050;19;20688;-65
2022/02/24 06:55:27;;;;;;;4.63;2.80;;;1.00;99.90;;;;;;7377099;19;20324;-65
2022/02/24 06:57:53;;;;;;;3.03;2.53;;;1.10;99.90;;;;;;7373649;19;20339;-64
2022/02/24 07:00:19;;;;;;;3.58;2.50;;;1.10;99.90;;;;;;7375762;19;20649;-65
2022/02/24 07:02:45;;;;;;;2.83;2.33;;;1.20;99.90;;;;;;7371464;19;20328;-65
2022/02/24 07:05:11;;;;;;;3.00;2.47;;;1.20;99.90;;;;;;7378217;19;20325;-64
2022/02/24 07:07:36;;;;;;;2.92;2.03;;;1.30;99.90;;;;;;7380321;19;20403;-64
2022/02/24 07:10:08;;;;;;;6.75;2.88;;;1.30;99.90;;;;;;7383536;19;20355;-65
2022/02/24 07:12:35;;;;;;;2.83;2.30;;;1.50;99.90;;;;;;7372916;19;20979;-65
2022/02/24 07:15:00;;;;;;;2.58;2.35;;;1.60;99.90;;;;;;7380027;19;20330;-64
2022/02/24 07:17:26;;;;;;;3.30;2.30;;;1.70;99.90;;;;;;7380218;19;20912;-65
2022/02/24 07:19:52;;;;;;;3.23;2.30;;;1.80;99.90;;;;;;7380869;19;20707;-65
2022/02/24 07:22:17;;;;;;;2.90;2.13;;;1.90;99.90;;;;;;7380581;19;20333;-64
2022/02/24 07:24:43;;;;;;;6.73;2.53;;;2.00;99.90;;;;;;7381991;19;20321;-65
2022/02/24 07:27:08;;;;;;;2.78;2.25;;;2.10;99.90;;;;;;7380029;19;20345;-64
2022/02/24 07:29:34;;;;;;;4.33;2.70;;;2.20;99.90;;;;;;7382744;19;20332;-64
2022/02/24 07:32:00;;;;;;;5.50;2.60;;;2.30;99.90;;;;;;7379584;19;21036;-65
2022/02/24 07:34:25;;;;;;;4.20;3.03;;;2.40;99.90;;;;;;7380178;19;20329;-64
2022/02/24 07:36:51;;;;;;;2.53;2.17;;;2.60;99.90;;;;;;7380051;19;20312;-64
2022/02/24 07:39:17;;;;;;;3.42;2.55;;;2.80;99.90;;;;;;7382268;19;20321;-65
2022/02/24 07:41:43;;;;;;;3.83;2.38;;;2.90;99.90;;;;;;7380241;19;20878;-65
2022/02/24 07:44:09;;;;;;;3.58;2.10;;;3.10;99.90;;;;;;7378187;19;20316;-64
2022/02/24 07:46:35;;;;;;;2.77;2.20;;;3.20;99.90;;;;;;7379949;19;20331;-64
2022/02/24 07:49:00;;;;;;;4.00;2.03;;;3.40;99.90;;;;;;7381561;19;20305;-65
2022/02/24 07:51:26;;;;;;;5.20;2.00;;;3.60;99.90;;;;;;7379809;19;20309;-64
2022/02/24 07:53:52;;;;;;;2.77;1.83;;;3.70;99.90;;;;;;7374019;19;20350;-64
2022/02/24 07:56:17;;;;;;;2.67;1.80;;;3.90;99.90;;;;;;7371749;19;20386;-64
2022/02/24 07:58:43;;;;;;;3.10;1.80;;;4.00;99.90;;;;;;7377782;19;20317;-65
2022/02/24 08:01:23;;;;;;;2.13;1.57;;;4.10;99.90;;;;;;7305010;19;20292;-64
2022/02/24 08:03:55;;;;;;;5.28;1.83;;;4.20;99.90;;;;;;7242726;19;2004613;-66
2022/02/24 08:06:20;;;;;;;1.80;1.70;;;4.30;99.90;;;;;;7379755;19;20331;-64
2022/02/24 08:08:47;;;;;;;4.27;2.03;;;4.40;99.90;;;;;;7379618;19;20888;-65
2022/02/24 08:11:13;;;;;;;2.60;1.80;;;4.50;99.90;;;;;;7382035;19;20313;-65
2022/02/24 08:13:39;;;;;;;2.10;1.90;;;4.60;99.90;;;;;;7375723;19;20319;-65
2022/02/24 08:16:04;;;;;;;2.10;1.73;;;4.80;99.90;;;;;;7380168;19;20316;-65
2022/02/24 08:18:30;;;;;;;3.00;1.90;;;4.80;99.90;;;;;;7379207;19;20408;-64
2022/02/24 08:20:55;;;;;;;2.23;2.00;;;4.90;99.90;;;;;;7380805;19;20355;-65
2022/02/24 08:23:21;;;;;;;3.25;2.25;;;5.00;99.90;;;;;;7372866;19;20328;-64
2022/02/24 08:25:47;;;;;;;4.33;1.97;;;5.20;99.90;;;;;;7375970;19;20331;-65
2022/02/24 08:28:12;;;;;;;4.93;2.40;;;5.30;99.90;;;;;;7374926;19;20336;-64
2022/02/24 08:30:38;;;;;;;2.53;1.87;;;5.40;99.90;;;;;;7376204;19;20312;-64
2022/02/24 08:33:05;;;;;;;4.20;2.20;;;5.50;99.90;;;;;;7375137;19;20327;-65
2022/02/24 08:35:31;;;;;;;3.55;2.00;;;5.60;99.90;;;;;;7374743;19;20327;-65
2022/02/24 08:37:56;;;;;;;5.37;2.40;;;5.70;99.90;;;;;;7379342;19;20320;-65
2022/02/24 08:40:22;;;;;;;4.03;2.20;;;5.80;99.90;;;;;;7378803;19;20411;-64
2022/02/24 08:42:48;;;;;;;4.82;2.13;;;5.80;99.90;;;;;;7374848;19;21358;-65
2022/02/24 08:45:14;;;;;;;3.47;1.92;;;5.90;99.90;;;;;;7376500;19;20336;-64
2022/02/24 08:47:40;;;;;;;2.97;2.20;;;6.10;99.90;;;;;;7373082;19;20390;-66
2022/02/24 08:50:06;;;;;;;2.75;2.13;;;6.10;99.90;;;;;;7378093;19;20337;-64
2022/02/24 08:52:32;;;;;;;3.40;2.30;;;6.10;99.90;;;;;;7374313;19;21213;-65
2022/02/24 08:54:58;;;;;;;3.47;2.05;;;6.10;99.90;;;;;;7377201;19;20321;-64
2022/02/24 08:57:23;;;;;;;2.10;1.80;;;6.20;99.90;;;;;;7375729;19;20312;-64
2022/02/24 08:59:49;;;;;;;3.03;1.88;;;6.20;99.90;;;;;;7377960;19;20935;-64
2022/02/24 09:02:14;;;;;;;2.43;2.13;;;6.30;99.90;;;;;;7376912;19;20321;-64
2022/02/24 09:04:40;;;;;;;3.85;2.33;;;6.30;99.90;;;;;;7381527;19;21050;-66
2022/02/24 09:07:06;;;;;;;2.87;2.20;;;6.40;99.90;;;;;;7377653;19;21153;-67
2022/02/24 09:09:31;;;;;;;1.95;1.73;;;6.40;99.90;;;;;;7378023;19;20384;-64
2022/02/24 09:11:57;;;;;;;4.00;2.13;;;6.50;99.90;;;;;;7375936;19;20832;-64
2022/02/24 09:14:23;;;;;;;3.15;2.20;;;6.60;99.90;;;;;;7375523;19;20664;-64
2022/02/24 09:16:49;;;;;;;2.95;2.30;;;6.70;99.90;;;;;;7375504;19;20308;-64
2022/02/24 09:19:14;;;;;;;4.10;2.40;;;6.70;99.90;;;;;;7378066;19;20335;-64
2022/02/24 09:21:40;;;;;;;2.83;2.25;;;6.90;99.90;;;;;;7375066;19;20339;-65
2022/02/24 09:24:06;;;;;;;2.90;2.10;;;6.90;99.90;;;;;;7377475;19;20920;-65
2022/02/24 09:26:33;;;;;;;3.00;2.03;;;6.90;99.90;;;;;;7374782;19;20348;-64
2022/02/24 09:28:59;;;;;;;2.60;2.10;;;7.10;99.90;;;;;;7377428;19;20685;-65
2022/02/24 09:31:26;;;;;;;3.88;2.03;;;7.20;99.90;;;;;;7377932;19;20313;-64
2022/02/24 09:33:52;;;;;;;3.45;2.28;;;7.40;99.90;;;;;;7373317;19;20324;-65
